Terminal Aerodrome Forecast
Issued by NWS Upton, NY

Home | Current Version | Previous Version | Text Only | Print | Product List | Glossary On
Versions: 1 2 3 4 5 6 7 8 9 10 11 12 13 14 15 16 17 18 19 20 21 22 23 24 25 26 27 28 29 30 31 32 33 34 35 36 37 38 39
000
FTUS41 KOKX 202340
TAFJFK
TAF
KJFK 202340Z 2100/2206 12005KT 6SM -RA BKN016 BKN030
     FM210300 19004KT 1SM -DZ BR OVC008
      TEMPO 2108/2111 OVC004
     FM211500 25006KT 5SM BR SCT006 BKN012
     FM211800 24008KT P6SM SCT020 BKN050
     FM220100 24004KT 4SM BR OVC015
      TEMPO 2203/2206 23003KT 1/2SM FG OVC005=

USA.gov is the U.S. government's official web portal to all federal, state and local government web resources and services.